Terminal Aerodrome Forecast
Issued by NWS

Home | Current Version | Previous Version | Text Only | Print | Product List | Glossary On
Versions: 1 2 3 4 5 6 7 8 9 10 11 12
000
FTUS45 KVEF 230500
TAFDAG
TAF
KDAG 230535Z 2306/2406 26022G32KT P6SM SCT250
     FM230800 27014G24KT P6SM SCT250
     FM231800 32010KT P6SM SCT250
     FM240400 27007KT P6SM SCT250=

USA.gov is the U.S. government's official web portal to all federal, state and local government web resources and services.